Time;durP1;ratioP1;P1;durP2;ratioP2;P2;SDS_P1;SDS_P2;PMS_P1;PMS_P2;Temp;Humidity;BMP_temperature;BMP_pressure;BME280_temperature;BME280_humidity;BME280_pressure;Samples;Min_cycle;Max_cycle;Signal;HPM_P1;HPM_P2
2024/01/27 00:02:17;;;;;;;16.10;4.67;;;;;;;2.41;100.00;103480.66;5131359;27;20078;-39
2024/01/27 00:04:43;;;;;;;13.03;4.27;;;;;;;2.30;100.00;103470.78;5130702;27;20048;-39
2024/01/27 00:07:08;;;;;;;10.47;4.13;;;;;;;2.38;100.00;103472.88;5122066;27;20441;-39
2024/01/27 00:09:34;;;;;;;11.33;3.93;;;;;;;2.38;100.00;103475.53;5117251;28;20027;-39
2024/01/27 00:11:59;;;;;;;14.25;3.75;;;;;;;2.35;100.00;103473.97;5117221;28;20016;-39
2024/01/27 00:14:24;;;;;;;11.40;4.33;;;;;;;2.37;100.00;103479.19;5116641;28;20024;-39
2024/01/27 00:16:50;;;;;;;9.07;3.77;;;;;;;2.37;100.00;103476.50;5117446;28;20059;-39
2024/01/27 00:19:15;;;;;;;14.83;4.23;;;;;;;2.37;100.00;103481.84;5116876;28;20464;-39
2024/01/27 00:21:41;;;;;;;10.10;3.65;;;;;;;2.35;100.00;103462.44;5116537;28;20023;-39
2024/01/27 00:24:06;;;;;;;14.53;3.73;;;;;;;2.34;100.00;103466.91;5117047;28;20098;-39
2024/01/27 00:26:32;;;;;;;10.47;3.97;;;;;;;2.37;100.00;103474.69;5116945;28;20265;-39
2024/01/27 00:28:57;;;;;;;9.33;3.63;;;;;;;2.37;100.00;103463.16;5116711;28;20107;-39
2024/01/27 00:31:22;;;;;;;12.50;3.57;;;;;;;2.28;100.00;103454.00;5116875;27;20062;-38
2024/01/27 00:33:48;;;;;;;9.83;3.30;;;;;;;2.26;100.00;103461.28;5116373;28;20027;-39
2024/01/27 00:36:13;;;;;;;7.53;3.17;;;;;;;2.20;100.00;103454.59;5115921;28;20482;-39
2024/01/27 00:38:38;;;;;;;10.37;4.47;;;;;;;2.33;100.00;103482.06;5115979;28;20031;-39
2024/01/27 00:41:04;;;;;;;10.63;3.80;;;;;;;2.32;100.00;103491.06;5116253;27;20024;-39
2024/01/27 00:43:30;;;;;;;11.80;3.65;;;;;;;2.20;100.00;103464.41;5116091;28;20110;-39
2024/01/27 00:45:56;;;;;;;10.88;3.78;;;;;;;2.26;100.00;103477.31;5115820;27;20027;-39
2024/01/27 00:48:22;;;;;;;10.77;3.95;;;;;;;2.26;100.00;103485.31;5115953;28;20034;-39
2024/01/27 00:50:47;;;;;;;12.77;4.13;;;;;;;2.24;100.00;103489.91;5116540;28;20364;-39
2024/01/27 00:53:13;;;;;;;12.67;4.67;;;;;;;2.23;100.00;103490.88;5115929;28;20039;-39
2024/01/27 00:55:38;;;;;;;14.10;4.93;;;;;;;2.23;100.00;103485.53;5116072;28;20082;-39
2024/01/27 00:58:03;;;;;;;10.40;4.13;;;;;;;2.19;100.00;103492.91;5115823;28;20024;-39
2024/01/27 01:00:29;;;;;;;9.70;3.80;;;;;;;2.20;100.00;103496.47;5115985;28;20028;-39
2024/01/27 01:02:54;;;;;;;11.53;4.17;;;;;;;2.12;100.00;103491.66;5115755;28;20034;-39
2024/01/27 01:05:19;;;;;;;20.87;5.20;;;;;;;2.05;100.00;103482.41;5115363;28;20031;-39
2024/01/27 01:07:45;;;;;;;10.27;3.50;;;;;;;2.05;100.00;103488.59;5116484;28;20020;-39
2024/01/27 01:10:10;;;;;;;11.90;4.03;;;;;;;2.01;100.00;103484.44;5115579;28;20032;-39
2024/01/27 01:12:36;;;;;;;12.67;3.47;;;;;;;1.93;100.00;103478.78;5116100;28;20024;-38
2024/01/27 01:15:02;;;;;;;10.32;4.00;;;;;;;1.97;100.00;103490.09;5115069;28;20023;-38
2024/01/27 01:17:27;;;;;;;10.32;3.95;;;;;;;1.95;100.00;103492.88;5115539;28;20073;-38
2024/01/27 01:19:53;;;;;;;13.43;4.30;;;;;;;1.95;100.00;103497.34;5115423;28;20082;-38
2024/01/27 01:22:18;;;;;;;11.63;3.47;;;;;;;1.96;100.00;103493.72;5115419;28;20781;-39
2024/01/27 01:24:44;;;;;;;9.33;3.90;;;;;;;1.93;100.00;103494.78;5115043;28;20027;-39
2024/01/27 01:27:09;;;;;;;9.37;3.83;;;;;;;1.91;100.00;103503.88;5115576;28;20019;-39
2024/01/27 01:29:35;;;;;;;12.77;4.23;;;;;;;1.90;100.00;103507.50;5115496;28;20352;-39
2024/01/27 01:32:02;;;;;;;12.88;3.97;;;;;;;1.90;100.00;103499.47;5115134;28;20028;-38
2024/01/27 01:34:28;;;;;;;15.10;5.10;;;;;;;1.79;100.00;103486.91;5114960;28;20077;-39
2024/01/27 01:36:54;;;;;;;10.65;4.15;;;;;;;1.87;100.00;103494.38;5115333;28;20031;-39
2024/01/27 01:39:19;;;;;;;13.45;4.07;;;;;;;1.75;100.00;103486.25;5114961;28;20024;-39
2024/01/27 01:41:45;;;;;;;10.10;4.20;;;;;;;1.83;100.00;103500.91;5115001;28;20119;-39
2024/01/27 01:44:10;;;;;;;18.70;4.43;;;;;;;1.82;100.00;103499.19;5114887;28;20070;-39
2024/01/27 01:46:36;;;;;;;12.23;3.70;;;;;;;1.82;100.00;103491.19;5114577;28;20050;-39
2024/01/27 01:49:01;;;;;;;13.10;4.18;;;;;;;1.80;100.00;103496.63;5114807;28;20035;-39
2024/01/27 01:51:27;;;;;;;9.45;4.53;;;;;;;1.83;100.00;103500.91;5115079;28;20432;-39
2024/01/27 01:53:57;;;;;;;11.68;4.57;;;;;;;1.78;100.00;103507.41;5114736;28;20452;-39
2024/01/27 01:56:23;;;;;;;12.18;4.05;;;;;;;1.82;100.00;103509.88;5114681;28;20138;-39
2024/01/27 01:58:48;;;;;;;15.27;4.90;;;;;;;1.70;100.00;103498.22;5115191;28;20032;-39
2024/01/27 02:01:15;;;;;;;12.17;4.40;;;;;;;1.77;100.00;103505.69;5115151;28;20028;-39
2024/01/27 02:03:40;;;;;;;14.10;4.15;;;;;;;1.74;100.00;103500.56;5114706;28;20080;-39
2024/01/27 02:06:06;;;;;;;14.00;4.70;;;;;;;1.66;100.00;103491.41;5115405;28;20374;-38
2024/01/27 02:08:31;;;;;;;12.35;4.50;;;;;;;1.72;100.00;103504.31;5114530;28;20063;-39
2024/01/27 02:10:58;;;;;;;10.67;4.87;;;;;;;1.74;100.00;103507.72;5114535;28;20055;-38
2024/01/27 02:13:24;;;;;;;10.40;4.72;;;;;;;1.65;100.00;103501.22;5114035;28;20467;-39
2024/01/27 02:15:50;;;;;;;11.48;4.57;;;;;;;1.72;100.00;103507.00;5114183;28;20027;-39
2024/01/27 02:18:16;;;;;;;13.95;4.80;;;;;;;1.62;100.00;103512.13;5115158;28;20024;-39
2024/01/27 02:20:42;;;;;;;11.55;4.55;;;;;;;1.59;100.00;103514.13;5115316;28;20090;-39
2024/01/27 02:23:08;;;;;;;11.07;4.88;;;;;;;1.61;100.00;103515.75;5114226;28;20023;-39
2024/01/27 02:25:34;;;;;;;10.70;5.03;;;;;;;1.57;100.00;103521.41;5113895;28;20028;-38
2024/01/27 02:28:00;;;;;;;10.52;4.43;;;;;;;1.53;100.00;103507.41;5114474;28;20019;-38
2024/01/27 02:30:25;;;;;;;8.43;4.20;;;;;;;1.54;100.00;103512.63;5113847;28;20023;-38
2024/01/27 02:32:57;;;;;;;10.27;4.80;;;;;;;1.55;100.00;103513.50;5114112;28;20034;-38
2024/01/27 02:35:22;;;;;;;12.20;4.85;;;;;;;1.52;100.00;103511.06;5114529;28;20277;-39
2024/01/27 02:37:48;;;;;;;7.43;4.37;;;;;;;1.49;100.00;103514.78;5114870;28;20024;-39
2024/01/27 02:40:14;;;;;;;10.90;4.20;;;;;;;1.51;100.00;103517.31;5114014;28;20019;-39
2024/01/27 02:42:41;;;;;;;13.65;5.13;;;;;;;1.51;100.00;103504.00;5114417;28;20027;-39
2024/01/27 02:45:07;;;;;;;9.00;4.35;;;;;;;1.48;100.00;103512.22;5113847;28;20059;-39
2024/01/27 02:47:32;;;;;;;12.10;4.63;;;;;;;1.54;100.00;103519.78;5114470;28;20081;-38
2024/01/27 02:49:58;;;;;;;12.63;4.73;;;;;;;1.51;100.00;103514.66;5114183;28;20023;-38
2024/01/27 02:52:23;;;;;;;16.00;5.43;;;;;;;1.44;100.00;103511.56;5114187;28;20027;-39
2024/01/27 02:54:48;;;;;;;13.77;5.50;;;;;;;1.42;100.00;103504.66;5113778;28;20059;-39
2024/01/27 02:57:15;;;;;;;13.87;5.03;;;;;;;1.48;100.00;103510.41;5113753;28;20036;-38
2024/01/27 02:59:40;;;;;;;11.55;5.18;;;;;;;1.48;100.00;103509.56;5113995;28;20403;-38
2024/01/27 03:02:06;;;;;;;12.63;5.00;;;;;;;1.29;100.00;103485.97;5113861;28;20034;-38
2024/01/27 03:04:31;;;;;;;12.83;5.57;;;;;;;1.47;100.00;103497.19;5114034;28;20280;-38
2024/01/27 03:06:57;;;;;;;13.10;5.00;;;;;;;1.46;100.00;103496.31;5113743;28;20035;-38
2024/01/27 03:09:22;;;;;;;10.77;5.23;;;;;;;1.40;100.00;103495.88;5113624;28;20310;-38
2024/01/27 03:11:47;;;;;;;13.63;4.37;;;;;;;1.48;100.00;103514.88;5114045;28;20024;-38
2024/01/27 03:14:13;;;;;;;11.87;4.43;;;;;;;1.39;100.00;103505.69;5113670;28;20036;-38
2024/01/27 03:16:38;;;;;;;12.80;5.93;;;;;;;1.46;100.00;103527.47;5114123;28;20020;-39
2024/01/27 03:19:03;;;;;;;15.45;5.10;;;;;;;1.37;100.00;103507.63;5113644;28;20030;-38
2024/01/27 03:21:29;;;;;;;13.17;4.93;;;;;;;1.44;100.00;103519.56;5113883;28;20051;-38
2024/01/27 03:23:54;;;;;;;9.13;4.30;;;;;;;1.46;100.00;103516.78;5113544;28;20360;-38
2024/01/27 03:26:20;;;;;;;10.03;4.47;;;;;;;1.33;100.00;103495.47;5113888;28;20122;-38
2024/01/27 03:28:45;;;;;;;10.93;4.30;;;;;;;1.42;100.00;103505.50;5113496;28;20102;-39
2024/01/27 03:31:10;;;;;;;12.93;4.57;;;;;;;1.31;100.00;103513.38;5113822;28;20520;-38
2024/01/27 03:33:36;;;;;;;13.00;4.90;;;;;;;1.38;100.00;103516.50;5113464;28;20023;-39
2024/01/27 03:36:01;;;;;;;8.03;3.97;;;;;;;1.42;100.00;103510.84;5113424;28;20371;-38
2024/01/27 03:38:26;;;;;;;10.40;5.13;;;;;;;1.34;100.00;103501.66;5113408;28;20032;-38
2024/01/27 03:40:52;;;;;;;14.23;4.53;;;;;;;1.39;100.00;103516.38;5113749;28;20452;-38
2024/01/27 03:43:17;;;;;;;9.83;4.90;;;;;;;1.32;100.00;103517.75;5117750;28;20038;-39
2024/01/27 03:45:42;;;;;;;9.88;4.10;;;;;;;1.33;100.00;103518.63;5117177;28;20027;-39
2024/01/27 03:48:08;;;;;;;11.57;5.10;;;;;;;1.21;100.00;103505.16;5117782;28;20038;-38
2024/01/27 03:50:33;;;;;;;11.77;4.60;;;;;;;1.28;100.00;103511.78;5117205;28;20511;-38
2024/01/27 03:52:58;;;;;;;11.97;4.67;;;;;;;1.28;100.00;103514.44;5116930;28;20471;-38
2024/01/27 03:55:24;;;;;;;11.93;5.10;;;;;;;1.26;100.00;103512.81;5117141;28;20055;-38
2024/01/27 03:57:49;;;;;;;13.03;4.40;;;;;;;1.25;100.00;103519.97;5117880;28;20054;-38
2024/01/27 04:00:15;;;;;;;14.43;5.50;;;;;;;1.23;100.00;103519.25;5117031;28;20106;-38
2024/01/27 04:02:40;;;;;;;11.68;4.75;;;;;;;1.20;100.00;103516.78;5117578;28;20031;-38
2024/01/27 04:05:06;;;;;;;12.03;4.87;;;;;;;1.21;100.00;103529.13;5117437;28;20027;-38
2024/01/27 04:07:31;;;;;;;12.88;5.10;;;;;;;1.15;100.00;103526.03;5117155;28;20421;-38
2024/01/27 04:09:57;;;;;;;9.97;4.60;;;;;;;1.18;100.00;103534.69;5117046;28;20023;-38
2024/01/27 04:12:22;;;;;;;11.63;5.50;;;;;;;1.04;100.00;103518.78;5116978;28;20035;-38
2024/01/27 04:14:47;;;;;;;13.85;4.43;;;;;;;1.08;100.00;103527.44;5116534;28;20459;-38
2024/01/27 04:17:13;;;;;;;10.23;4.70;;;;;;;1.12;100.00;103537.75;5117208;28;20031;-38
2024/01/27 04:19:38;;;;;;;13.50;4.20;;;;;;;1.14;100.00;103537.66;5117053;28;20075;-38
2024/01/27 04:22:03;;;;;;;12.73;5.27;;;;;;;1.02;100.00;103526.88;5116206;28;20020;-38
2024/01/27 04:24:29;;;;;;;11.13;4.60;;;;;;;1.10;100.00;103530.81;5116437;28;20024;-38
2024/01/27 04:26:54;;;;;;;10.77;5.10;;;;;;;0.92;100.00;103500.94;5117248;28;20054;-38
2024/01/27 04:29:19;;;;;;;9.43;4.73;;;;;;;1.12;100.00;103524.41;5116434;28;20758;-38
2024/01/27 04:31:45;;;;;;;16.30;5.60;;;;;;;1.09;100.00;103521.13;5116336;28;20502;-39
2024/01/27 04:34:10;;;;;;;13.33;4.67;;;;;;;1.05;100.00;103519.63;5116585;28;20036;-39
2024/01/27 04:36:36;;;;;;;9.73;4.57;;;;;;;1.06;100.00;103524.84;5116459;28;20118;-39
2024/01/27 04:39:02;;;;;;;11.13;4.68;;;;;;;1.01;100.00;103533.16;5115872;28;20066;-39
2024/01/27 04:41:27;;;;;;;10.13;4.60;;;;;;;1.08;100.00;103533.59;5115885;28;20059;-39
2024/01/27 04:43:55;;;;;;;10.23;4.80;;;;;;;1.01;100.00;103530.47;5116108;28;20031;-39
2024/01/27 04:46:20;;;;;;;11.88;4.97;;;;;;;1.07;100.00;103541.69;5116367;28;20032;-39
2024/01/27 04:48:46;;;;;;;12.83;5.10;;;;;;;0.98;100.00;103525.38;5116573;28;20417;-39
2024/01/27 04:51:11;;;;;;;13.23;4.67;;;;;;;1.04;100.00;103537.44;5116596;28;20069;-39
2024/01/27 04:53:36;;;;;;;11.13;4.87;;;;;;;1.02;100.00;103523.34;5116634;28;20031;-39
2024/01/27 04:56:02;;;;;;;10.57;4.73;;;;;;;0.91;100.00;103523.22;5116769;28;20070;-39
2024/01/27 04:58:27;;;;;;;11.33;4.87;;;;;;;0.98;100.00;103535.19;5115875;28;20044;-39
2024/01/27 05:00:52;;;;;;;11.87;4.80;;;;;;;0.76;100.00;103506.44;5116371;28;20027;-39
2024/01/27 05:03:18;;;;;;;9.40;4.73;;;;;;;0.93;100.00;103534.63;5116056;28;20384;-39
2024/01/27 05:05:43;;;;;;;10.43;4.37;;;;;;;0.92;100.00;103523.09;5115716;28;20031;-39
2024/01/27 05:08:09;;;;;;;19.90;5.00;;;;;;;0.89;100.00;103522.47;5115993;28;20452;-39
2024/01/27 05:10:35;;;;;;;9.38;4.68;;;;;;;0.90;100.00;103516.19;5115279;28;20476;-39
2024/01/27 05:13:00;;;;;;;12.43;5.07;;;;;;;0.84;100.00;103516.59;5115255;28;20110;-39
2024/01/27 05:15:26;;;;;;;10.07;4.80;;;;;;;0.94;100.00;103537.19;5115926;28;20126;-39
2024/01/27 05:17:51;;;;;;;11.43;5.15;;;;;;;0.87;100.00;103524.38;5115434;28;20451;-39
2024/01/27 05:20:17;;;;;;;13.77;4.73;;;;;;;0.91;100.00;103547.19;5115383;28;20082;-39
2024/01/27 05:22:44;;;;;;;11.85;5.30;;;;;;;0.80;100.00;103534.59;5115613;28;20026;-39
2024/01/27 05:25:09;;;;;;;14.75;5.85;;;;;;;0.85;100.00;103537.78;5115457;28;20038;-39
2024/01/27 05:27:37;;;;;;;12.25;5.13;;;;;;;0.87;100.00;103540.34;5115571;28;20372;-39
2024/01/27 05:30:02;;;;;;;13.38;5.15;;;;;;;0.88;100.00;103532.28;5115182;28;20023;-39
2024/01/27 05:32:28;;;;;;;12.93;4.85;;;;;;;0.81;100.00;103530.09;5115464;28;20115;-39
2024/01/27 05:34:53;;;;;;;12.67;4.90;;;;;;;0.87;100.00;103529.69;5114791;28;20062;-39
2024/01/27 05:37:18;;;;;;;15.87;5.03;;;;;;;0.86;100.00;103520.00;5115179;28;20078;-39
2024/01/27 05:39:44;;;;;;;11.50;5.03;;;;;;;0.86;100.00;103526.19;5115019;28;20032;-39
2024/01/27 05:42:09;;;;;;;8.83;5.27;;;;;;;0.87;100.00;103516.38;5115829;28;20019;-39
2024/01/27 05:44:34;;;;;;;12.60;4.87;;;;;;;0.86;100.00;103517.34;5115276;28;20030;-39
2024/01/27 05:47:00;;;;;;;15.10;5.23;;;;;;;0.82;100.00;103505.16;5115469;28;20110;-39
2024/01/27 05:49:25;;;;;;;10.43;5.30;;;;;;;0.84;100.00;103517.44;5114653;28;20023;-39
2024/01/27 05:51:51;;;;;;;11.90;6.13;;;;;;;0.85;100.00;103518.31;5115179;27;20030;-39
2024/01/27 05:54:16;;;;;;;11.87;5.07;;;;;;;0.85;100.00;103516.47;5114980;28;20047;-39
2024/01/27 05:56:42;;;;;;;12.57;5.63;;;;;;;0.74;100.00;103498.56;5114556;27;20051;-39
2024/01/27 05:59:07;;;;;;;12.27;5.15;;;;;;;0.83;100.00;103512.19;5114927;28;20023;-39
2024/01/27 06:01:33;;;;;;;9.50;5.20;;;;;;;0.82;100.00;103513.16;5114373;28;20020;-39
2024/01/27 06:03:58;;;;;;;10.73;5.40;;;;;;;0.80;100.00;103517.75;5114231;28;20023;-39
2024/01/27 06:06:24;;;;;;;12.05;5.43;;;;;;;0.69;100.00;103503.34;5114648;28;20556;-39
2024/01/27 06:08:49;;;;;;;15.63;5.85;;;;;;;0.72;100.00;103513.75;5114727;28;20376;-39
2024/01/27 06:11:23;;;;;;;11.80;5.38;;;;;;;0.57;100.00;103479.31;5114738;28;20031;-39
2024/01/27 06:13:48;;;;;;;11.10;5.18;;;;;;;0.75;100.00;103494.06;5114664;28;20024;-39
2024/01/27 06:16:14;;;;;;;11.75;5.25;;;;;;;0.72;100.00;103516.44;5114845;28;20161;-39
2024/01/27 06:18:39;;;;;;;10.47;5.77;;;;;;;0.62;100.00;103487.84;5114544;28;20481;-39
2024/01/27 06:21:05;;;;;;;13.53;6.57;;;;;;;0.70;100.00;103512.19;5115173;28;20032;-39
2024/01/27 06:23:30;;;;;;;14.75;6.10;;;;;;;0.69;100.00;103524.63;5114234;28;20031;-39
2024/01/27 06:25:56;;;;;;;9.03;5.17;;;;;;;0.69;100.00;103519.31;5114291;28;20035;-39
2024/01/27 06:28:21;;;;;;;16.27;5.37;;;;;;;0.67;100.00;103523.88;5113887;28;20085;-39
2024/01/27 06:30:47;;;;;;;12.07;5.07;;;;;;;0.67;100.00;103531.00;5114305;28;20034;-39
2024/01/27 06:33:12;;;;;;;12.10;5.95;;;;;;;0.65;100.00;103528.44;5114351;28;20030;-39
2024/01/27 06:35:37;;;;;;;11.87;5.10;;;;;;;0.69;100.00;103523.78;5114579;28;20020;-39
2024/01/27 06:38:03;;;;;;;7.97;4.60;;;;;;;0.70;100.00;103518.34;5114643;28;20054;-39
2024/01/27 06:40:28;;;;;;;13.75;4.85;;;;;;;0.65;100.00;103506.31;5113677;28;20429;-39
2024/01/27 06:42:53;;;;;;;12.90;5.87;;;;;;;0.69;100.00;103519.31;5114529;28;20036;-39
2024/01/27 06:45:19;;;;;;;14.50;5.57;;;;;;;0.65;100.00;103517.81;5113617;28;20437;-39
2024/01/27 06:47:44;;;;;;;8.27;4.57;;;;;;;0.61;100.00;103524.28;5114005;28;20028;-39
2024/01/27 06:50:10;;;;;;;14.73;5.30;;;;;;;0.63;100.00;103530.34;5113923;28;20081;-39
2024/01/27 06:52:35;;;;;;;11.50;4.80;;;;;;;0.56;100.00;103514.88;5113954;28;20024;-39
2024/01/27 06:55:01;;;;;;;9.67;5.30;;;;;;;0.40;100.00;103509.72;5114081;28;20038;-39
2024/01/27 06:57:26;;;;;;;14.73;5.93;;;;;;;0.54;100.00;103544.28;5113468;28;20048;-39
2024/01/27 06:59:52;;;;;;;10.70;5.20;;;;;;;0.48;100.00;103529.53;5113843;28;20105;-39
2024/01/27 07:02:26;;;;;;;;;;;;;;;0.61;100.00;103556.22;5114253;28;20035;-39
2024/01/27 07:04:51;;;;;;;12.57;5.20;;;;;;;0.41;100.00;103538.03;5113972;28;20279;-39
2024/01/27 07:07:17;;;;;;;13.53;5.80;;;;;;;0.49;100.00;103551.72;5113999;28;20036;-39
2024/01/27 07:09:42;;;;;;;13.73;5.73;;;;;;;0.29;100.00;103534.34;5113413;28;20278;-39
2024/01/27 07:12:08;;;;;;;10.32;5.03;;;;;;;0.43;100.00;103560.06;5114506;28;20261;-39
2024/01/27 07:14:34;;;;;;;13.48;6.43;;;;;;;0.36;100.00;103551.63;5113481;28;20024;-39
2024/01/27 07:16:59;;;;;;;14.68;5.90;;;;;;;0.42;100.00;103569.88;5115790;28;20467;-39
2024/01/27 07:19:25;;;;;;;9.63;5.87;;;;;;;0.42;100.00;103563.69;5118097;28;20037;-39
2024/01/27 07:21:51;;;;;;;10.33;5.83;;;;;;;0.44;100.00;103567.09;5118271;28;20024;-39
2024/01/27 07:24:16;;;;;;;;;;;;;;;0.47;100.00;103566.91;5118323;28;20406;-39
2024/01/27 07:26:42;;;;;;;11.93;5.80;;;;;;;0.39;100.00;103558.56;5117923;28;19960;-39
2024/01/27 07:29:07;;;;;;;15.93;5.60;;;;;;;0.42;100.00;103571.69;5117814;27;20032;-39
2024/01/27 07:31:33;;;;;;;14.60;6.45;;;;;;;0.44;100.00;103575.09;5117834;28;20020;-39
2024/01/27 07:33:59;;;;;;;13.37;6.20;;;;;;;0.34;100.00;103558.00;5117543;28;20066;-39
2024/01/27 07:36:25;;;;;;;13.52;5.93;;;;;;;0.34;100.00;103556.22;5117913;28;20042;-39
2024/01/27 07:38:51;;;;;;;12.05;6.32;;;;;;;0.48;100.00;103573.94;5117433;28;20059;-39
2024/01/27 07:41:16;;;;;;;9.90;5.70;;;;;;;0.48;100.00;103565.97;5117315;27;20454;-39
2024/01/27 07:43:42;;;;;;;10.37;6.03;;;;;;;0.42;100.00;103569.03;5118120;28;20027;-39
2024/01/27 07:46:07;;;;;;;19.63;5.73;;;;;;;0.53;100.00;103579.84;5117948;28;20031;-39
2024/01/27 07:48:32;;;;;;;14.40;6.60;;;;;;;0.45;100.00;103571.50;5116905;28;20030;-39
2024/01/27 07:50:58;;;;;;;19.63;6.77;;;;;;;0.53;100.00;103585.16;5117775;28;20035;-39
2024/01/27 07:53:23;;;;;;;11.27;5.77;;;;;;;0.54;100.00;103586.88;5117395;28;20417;-39
2024/01/27 07:55:50;;;;;;;10.80;6.27;;;;;;;0.51;100.00;103587.94;5117443;28;20056;-39
2024/01/27 07:58:16;;;;;;;13.60;6.35;;;;;;;0.53;100.00;103585.16;5116744;28;20027;-39
2024/01/27 08:00:41;;;;;;;14.33;6.33;;;;;;;0.58;100.00;103596.38;5117586;28;20024;-39
2024/01/27 08:03:06;;;;;;;14.43;6.60;;;;;;;0.64;100.00;103597.81;5117138;27;20527;-39
2024/01/27 08:05:32;;;;;;;11.23;6.68;;;;;;;0.65;100.00;103588.84;5116851;28;20522;-39
2024/01/27 08:07:57;;;;;;;10.03;6.13;;;;;;;0.67;100.00;103587.78;5117164;28;20028;-39
2024/01/27 08:10:22;;;;;;;10.10;6.17;;;;;;;0.74;100.00;103583.78;5117044;28;20035;-39
2024/01/27 08:12:48;;;;;;;14.13;6.40;;;;;;;0.79;100.00;103586.16;5117158;28;20468;-39
2024/01/27 08:15:13;;;;;;;14.00;6.60;;;;;;;0.85;100.00;103582.22;5116916;28;20451;-39
2024/01/27 08:17:39;;;;;;;16.00;6.10;;;;;;;0.81;100.00;103564.75;5116421;28;20019;-39
2024/01/27 08:20:05;;;;;;;11.40;6.13;;;;;;;0.90;100.00;103580.13;5116563;28;20023;-39
2024/01/27 08:22:30;;;;;;;15.10;6.85;;;;;;;0.87;100.00;103578.50;5117120;28;20391;-39
2024/01/27 08:24:55;;;;;;;15.83;7.20;;;;;;;0.83;100.00;103570.81;5116801;28;20028;-39
2024/01/27 08:27:21;;;;;;;9.33;5.30;;;;;;;0.94;100.00;103581.63;5116261;28;20089;-39
2024/01/27 08:29:46;;;;;;;13.43;6.30;;;;;;;0.96;100.00;103574.38;5116815;28;20106;-39
2024/01/27 08:32:12;;;;;;;11.47;6.00;;;;;;;1.02;100.00;103565.97;5116932;28;20050;-39
2024/01/27 08:34:37;;;;;;;14.93;6.55;;;;;;;0.98;100.00;103567.16;5116260;27;20089;-39
2024/01/27 08:37:14;;;;;;;11.60;6.47;;;;;;;1.08;100.00;103573.59;5116019;28;20110;-39
2024/01/27 08:39:40;;;;;;;12.90;6.57;;;;;;;1.15;100.00;103569.53;5116231;28;20028;-39
2024/01/27 08:42:05;;;;;;;12.20;6.70;;;;;;;1.09;100.00;103551.31;5116786;28;20062;-39
2024/01/27 08:44:30;;;;;;;11.37;6.13;;;;;;;1.25;100.00;103573.28;5116697;28;20042;-39
2024/01/27 08:46:56;;;;;;;12.37;6.33;;;;;;;1.32;100.00;103576.41;5116484;27;20028;-39
2024/01/27 08:49:21;;;;;;;13.00;6.40;;;;;;;1.38;100.00;103578.66;5116616;28;20030;-39
2024/01/27 08:51:46;;;;;;;13.90;6.23;;;;;;;1.48;100.00;103589.56;5116053;28;20035;-39
2024/01/27 08:54:12;;;;;;;13.73;6.47;;;;;;;1.43;100.00;103567.69;5115678;28;20028;-39
2024/01/27 08:56:41;;;;;;;14.80;6.77;;;;;;;1.55;100.00;103582.84;5115709;28;20507;-39
2024/01/27 08:59:06;;;;;;;13.20;6.82;;;;;;;1.36;100.00;103556.56;5115834;28;20317;-39
2024/01/27 09:01:32;;;;;;;14.60;6.53;;;;;;;1.68;100.00;103593.53;5116202;28;20035;-39
2024/01/27 09:03:57;;;;;;;14.20;6.80;;;;;;;1.73;100.00;103583.41;5116488;28;20730;-39
2024/01/27 09:06:22;;;;;;;16.08;6.07;;;;;;;1.79;100.00;103575.81;5116047;28;20462;-39
2024/01/27 09:08:48;;;;;;;16.80;6.10;;;;;;;1.89;100.00;103589.38;5115968;28;20525;-39
2024/01/27 09:11:13;;;;;;;12.37;6.53;;;;;;;1.93;100.00;103590.00;5116470;28;20368;-39
2024/01/27 09:13:39;;;;;;;18.43;7.03;;;;;;;1.98;100.00;103598.53;5115875;28;20482;-39
2024/01/27 09:16:04;;;;;;;13.97;6.17;;;;;;;2.02;100.00;103600.03;5115778;28;20745;-39
2024/01/27 09:18:30;;;;;;;16.20;6.03;;;;;;;2.09;100.00;103609.31;5115578;27;20565;-39
2024/01/27 09:20:55;;;;;;;11.50;5.95;;;;;;;2.14;100.00;103611.66;5115770;28;20034;-39
2024/01/27 09:23:20;;;;;;;12.50;6.23;;;;;;;2.16;100.00;103604.41;5115969;28;20042;-39
2024/01/27 09:25:46;;;;;;;13.87;5.93;;;;;;;2.27;100.00;103610.69;5115381;28;20272;-39
2024/01/27 09:28:12;;;;;;;15.57;6.57;;;;;;;2.34;100.00;103608.44;5115059;28;20024;-39
2024/01/27 09:30:37;;;;;;;14.10;6.30;;;;;;;2.41;100.00;103611.53;5115784;28;20043;-39
2024/01/27 09:33:03;;;;;;;12.55;5.90;;;;;;;2.39;100.00;103602.75;5115604;28;20379;-39
2024/01/27 09:35:28;;;;;;;13.82;5.85;;;;;;;2.54;100.00;103625.72;5114797;28;20028;-39
2024/01/27 09:37:54;;;;;;;13.67;5.13;;;;;;;2.59;100.00;103631.59;5115171;28;20111;-39
2024/01/27 09:40:20;;;;;;;10.70;5.63;;;;;;;2.56;100.00;103613.09;5113977;28;20387;-39
2024/01/27 09:42:54;;;;;;;12.07;5.20;;;;;;;2.73;100.00;103634.13;5115350;28;20365;-39
2024/01/27 09:45:22;;;;;;;15.32;6.25;;;;;;;2.77;100.00;103640.94;5115303;28;20055;-39
2024/01/27 09:47:47;;;;;;;11.02;5.57;;;;;;;2.79;100.00;103636.34;5115573;28;20028;-39
2024/01/27 09:50:14;;;;;;;13.02;6.22;;;;;;;2.73;100.00;103631.44;5114583;28;20106;-39
2024/01/27 09:52:39;;;;;;;12.93;6.00;;;;;;;2.79;100.00;103646.19;5114624;28;20551;-39
2024/01/27 09:55:06;;;;;;;12.20;5.97;;;;;;;2.79;100.00;103648.84;5114449;28;20106;-39
2024/01/27 09:57:31;;;;;;;12.90;5.32;;;;;;;2.84;100.00;103649.38;5114834;28;20499;-39
2024/01/27 09:59:58;;;;;;;12.98;5.13;;;;;;;2.90;100.00;103656.94;5114940;28;20027;-39
2024/01/27 10:02:25;;;;;;;14.40;6.45;;;;;;;2.94;100.00;103657.56;5114955;28;20031;-39
2024/01/27 10:04:51;;;;;;;12.98;5.10;;;;;;;3.05;100.00;103658.47;5114598;28;20118;-39
2024/01/27 10:07:16;;;;;;;10.10;5.05;;;;;;;3.16;100.00;103663.03;5114903;28;20146;-39
2024/01/27 10:09:43;;;;;;;13.90;6.43;;;;;;;3.26;100.00;103663.19;5114566;28;20068;-39
2024/01/27 10:12:10;;;;;;;11.73;5.38;;;;;;;3.29;100.00;103647.78;5114502;28;20061;-39
2024/01/27 10:14:44;;;;;;;8.70;4.40;;;;;;;3.36;100.00;103643.66;5114373;28;20027;-39
2024/01/27 10:17:11;;;;;;;11.07;5.07;;;;;;;3.39;100.00;103655.13;5114822;28;20038;-39
2024/01/27 10:19:37;;;;;;;10.40;4.50;;;;;;;3.50;100.00;103664.03;5114869;28;20070;-39
2024/01/27 10:22:02;;;;;;;14.25;5.35;;;;;;;3.56;100.00;103660.94;5114301;28;20106;-39
2024/01/27 10:24:31;;;;;;;12.30;5.57;;;;;;;3.60;100.00;103657.03;5114726;28;20028;-39
2024/01/27 10:27:01;;;;;;;12.10;5.35;;;;;;;3.63;100.00;103645.25;5115081;28;20367;-39
2024/01/27 10:29:26;;;;;;;11.60;5.00;;;;;;;3.80;100.00;103650.16;5114225;28;20020;-39
2024/01/27 10:31:52;;;;;;;10.60;4.80;;;;;;;3.85;100.00;103644.44;5115013;28;20043;-39
2024/01/27 10:34:20;;;;;;;8.50;5.00;;;;;;;3.83;100.00;103631.19;5113901;28;20020;-39
2024/01/27 10:36:45;;;;;;;9.27;5.18;;;;;;;4.02;100.00;103641.31;5114549;27;20027;-39
2024/01/27 10:39:22;;;;;;;15.20;4.97;;;;;;;4.14;100.00;103647.53;5114046;28;20471;-40
2024/01/27 10:41:49;;;;;;;9.55;4.45;;;;;;;4.10;100.00;103643.41;5114328;28;20471;-40
2024/01/27 10:44:16;;;;;;;15.20;5.38;;;;;;;4.27;100.00;103664.34;5113536;28;20024;-40
2024/01/27 10:46:49;;;;;;;11.63;5.35;;;;;;;4.30;100.00;103657.91;5113707;28;20035;-40
2024/01/27 10:49:16;;;;;;;10.35;5.25;;;;;;;4.28;100.00;103644.63;5114477;28;20078;-40
2024/01/27 10:52:11;;;;;;;13.63;4.97;;;;;;;4.48;100.00;103661.78;5114271;28;20049;-40
2024/01/27 10:54:37;;;;;;;13.23;5.00;;;;;;;4.54;100.00;103647.94;5112236;28;20062;-40
2024/01/27 10:57:03;;;;;;;11.65;4.60;;;;;;;4.56;100.00;103637.06;5114475;28;20097;-40
2024/01/27 10:59:30;;;;;;;;;;;;;;;4.66;100.00;103635.34;5115356;28;20036;-40
2024/01/27 11:01:56;;;;;;;11.07;4.43;;;;;;;4.70;100.00;103631.47;5113843;28;19907;-40
2024/01/27 11:04:22;;;;;;;12.23;4.57;;;;;;;4.77;100.00;103627.28;5113968;28;20069;-40
2024/01/27 11:06:48;;;;;;;11.75;4.45;;;;;;;4.87;100.00;103628.22;5114036;28;20452;-40
2024/01/27 11:09:14;;;;;;;14.98;6.32;;;;;;;4.93;100.00;103626.91;5112508;28;20405;-40
2024/01/27 11:11:42;;;;;;;12.52;4.97;;;;;;;4.97;100.00;103628.34;5113969;28;20020;-40
2024/01/27 11:14:09;;;;;;;8.43;4.97;;;;;;;5.11;100.00;103627.19;5113614;28;20035;-40